createdAt,value
2022-07-25T00:02:10.011Z,10.93
2022-07-25T00:04:40.499Z,11.60
2022-07-25T00:07:12.007Z,11.50
2022-07-25T00:09:39.835Z,11.43
2022-07-25T00:12:08.335Z,10.38
2022-07-25T00:14:39.154Z,10.82
2022-07-25T00:17:06.985Z,11.88
2022-07-25T00:19:34.749Z,11.98
2022-07-25T00:22:02.583Z,12.45
2022-07-25T00:24:32.025Z,12.18
2022-07-25T00:26:59.859Z,12.70
2022-07-25T00:29:27.606Z,12.27
2022-07-25T00:31:55.392Z,11.23
2022-07-25T00:34:23.239Z,11.32
2022-07-25T00:36:51.015Z,11.52
2022-07-25T00:39:18.857Z,11.80
2022-07-25T00:41:48.012Z,11.57
2022-07-25T00:44:24.117Z,12.10
2022-07-25T00:46:53.307Z,12.13
2022-07-25T00:49:21.880Z,11.75
2022-07-25T00:51:50.993Z,12.13
2022-07-25T00:54:18.998Z,12.00
2022-07-25T00:56:49.146Z,12.52
2022-07-25T00:59:17.889Z,12.80
2022-07-25T01:01:48.294Z,12.50
2022-07-25T01:04:17.430Z,12.55
2022-07-25T01:06:45.568Z,13.20
2022-07-25T01:09:13.454Z,12.95
2022-07-25T01:11:41.344Z,12.23
2022-07-25T01:14:10.682Z,13.15
2022-07-25T01:16:38.514Z,13.88
2022-07-25T01:19:06.262Z,12.55
2022-07-25T01:21:39.028Z,13.30
2022-07-25T01:24:08.738Z,14.60
2022-07-25T01:26:38.073Z,12.35
2022-07-25T01:29:06.394Z,12.70
2022-07-25T01:31:34.473Z,13.35
2022-07-25T01:34:02.399Z,12.57
2022-07-25T01:36:30.257Z,12.85
2022-07-25T01:38:59.786Z,13.45
2022-07-25T01:41:27.817Z,13.63
2022-07-25T01:43:55.610Z,13.82
2022-07-25T01:46:23.441Z,14.80
2022-07-25T01:48:51.510Z,13.38
2022-07-25T01:51:20.399Z,13.85
2022-07-25T01:53:48.656Z,14.55
2022-07-25T01:56:19.413Z,14.23
2022-07-25T01:58:50.293Z,15.73
2022-07-25T02:01:19.450Z,15.27
2022-07-25T02:03:49.645Z,15.73
2022-07-25T02:06:19.253Z,14.73
2022-07-25T02:08:47.026Z,15.52
2022-07-25T02:11:14.800Z,15.98
2022-07-25T02:13:44.641Z,16.40
2022-07-25T02:16:12.688Z,15.43
2022-07-25T02:18:40.816Z,15.85
2022-07-25T02:21:14.221Z,16.23
2022-07-25T02:23:44.702Z,16.50
2022-07-25T02:26:14.929Z,16.25
2022-07-25T02:28:44.041Z,17.02
2022-07-25T02:31:11.896Z,16.45
2022-07-25T02:33:39.733Z,15.68
2022-07-25T02:36:08.343Z,15.93
2022-07-25T02:38:36.162Z,16.73
2022-07-25T02:41:04.590Z,15.55
2022-07-25T02:43:33.032Z,15.10
2022-07-25T02:46:02.463Z,16.20
2022-07-25T02:48:30.565Z,16.08
2022-07-25T02:50:58.878Z,16.27
2022-07-25T02:53:54.486Z,16.00
2022-07-25T02:56:14.871Z,16.83
2022-07-25T02:58:44.251Z,15.70
2022-07-25T03:01:14.243Z,15.75
2022-07-25T03:03:42.162Z,15.68
2022-07-25T03:06:10.078Z,16.17
2022-07-25T03:08:37.848Z,16.20
2022-07-25T03:11:05.830Z,15.00
2022-07-25T03:13:35.083Z,15.10
2022-07-25T03:16:03.087Z,16.42
2022-07-25T03:18:32.251Z,15.32
2022-07-25T03:21:01.095Z,15.52
2022-07-25T03:23:30.891Z,16.83
2022-07-25T03:25:59.270Z,15.70
2022-07-25T03:28:27.788Z,16.20
2022-07-25T03:30:55.675Z,15.25
2022-07-25T03:33:23.611Z,15.65
2022-07-25T03:35:52.985Z,16.35
2022-07-25T03:38:21.084Z,15.30
2022-07-25T03:40:48.964Z,17.08
2022-07-25T03:43:16.711Z,16.75
2022-07-25T03:45:44.798Z,16.67
2022-07-25T03:48:12.578Z,16.17
2022-07-25T03:50:40.410Z,17.25
2022-07-25T03:53:10.306Z,17.33
2022-07-25T03:55:39.660Z,16.73
2022-07-25T03:58:08.090Z,17.38
2022-07-25T04:00:35.812Z,16.55
2022-07-25T04:03:03.568Z,15.68
2022-07-25T04:05:31.655Z,16.83
2022-07-25T04:07:59.620Z,16.08
2022-07-25T04:10:29.737Z,16.52
2022-07-25T04:12:57.493Z,16.73
2022-07-25T04:15:25.378Z,16.20
2022-07-25T04:17:53.051Z,16.38
2022-07-25T04:20:21.733Z,15.15
2022-07-25T04:22:50.582Z,16.08
2022-07-25T04:25:19.029Z,14.90
2022-07-25T04:27:48.542Z,15.70
2022-07-25T04:30:24.321Z,15.90
2022-07-25T04:32:52.912Z,14.15
2022-07-25T04:35:20.942Z,15.55
2022-07-25T04:37:48.706Z,15.13
2022-07-25T04:40:16.879Z,15.60
2022-07-25T04:42:44.616Z,15.85
2022-07-25T04:45:14.475Z,14.38
2022-07-25T04:47:45.851Z,14.73
2022-07-25T04:50:13.946Z,15.27
2022-07-25T04:52:42.044Z,14.50
2022-07-25T04:55:11.138Z,14.55
2022-07-25T04:57:39.783Z,14.27
2022-07-25T05:00:09.986Z,14.13
2022-07-25T05:02:39.276Z,13.50
2022-07-25T05:05:08.491Z,13.88
2022-07-25T05:07:49.444Z,14.43
2022-07-25T05:10:17.252Z,14.35
2022-07-25T05:12:45.071Z,14.45
2022-07-25T05:15:13.549Z,14.77
2022-07-25T05:17:42.713Z,13.48
2022-07-25T05:20:12.175Z,14.50
2022-07-25T05:22:40.023Z,14.55
2022-07-25T05:25:09.370Z,14.13
2022-07-25T05:27:37.351Z,14.73
2022-07-25T05:30:08.793Z,14.25
2022-07-25T05:32:36.558Z,13.60
2022-07-25T05:35:07.937Z,13.50
2022-07-25T05:37:35.827Z,15.18
2022-07-25T05:40:03.971Z,14.18
2022-07-25T05:42:31.814Z,13.63
2022-07-25T05:44:59.630Z,13.32
2022-07-25T05:47:27.652Z,12.90
2022-07-25T05:49:55.557Z,13.57
2022-07-25T05:52:25.540Z,12.93
2022-07-25T05:54:54.309Z,12.93
2022-07-25T05:57:22.423Z,14.07
2022-07-25T05:59:50.146Z,13.70
2022-07-25T06:02:18.069Z,12.70
2022-07-25T06:04:46.157Z,13.18
2022-07-25T06:07:17.064Z,12.93
2022-07-25T06:09:46.479Z,13.75
2022-07-25T06:12:14.890Z,13.57
2022-07-25T06:14:42.677Z,14.57
2022-07-25T06:17:10.665Z,13.55
2022-07-25T06:19:38.439Z,13.18
2022-07-25T06:22:07.989Z,12.88
2022-07-25T06:24:36.030Z,12.35
2022-07-25T06:27:05.371Z,13.77
2022-07-25T06:29:33.189Z,12.82
2022-07-25T06:32:01.210Z,14.98
2022-07-25T06:34:29.146Z,14.32
2022-07-25T06:36:57.469Z,13.63
2022-07-25T06:39:25.961Z,13.88
2022-07-25T06:41:53.792Z,13.35
2022-07-25T06:44:23.055Z,16.38
2022-07-25T06:46:50.908Z,14.90
2022-07-25T06:49:18.937Z,14.23
2022-07-25T06:51:46.722Z,14.45
2022-07-25T06:54:15.644Z,14.07
2022-07-25T06:56:43.504Z,14.20
2022-07-25T06:59:11.420Z,13.30
2022-07-25T07:01:40.784Z,13.30
2022-07-25T07:04:08.855Z,13.65
2022-07-25T07:06:38.662Z,14.18
2022-07-25T07:09:06.594Z,14.15
2022-07-25T07:11:35.069Z,14.00
2022-07-25T07:14:03.666Z,13.00
2022-07-25T07:16:32.372Z,13.32
2022-07-25T07:19:01.564Z,14.27
2022-07-25T07:21:29.439Z,12.05
2022-07-25T07:23:57.222Z,12.75
2022-07-25T07:26:25.002Z,13.02
2022-07-25T07:28:54.509Z,12.93
2022-07-25T07:31:22.485Z,12.38
2022-07-25T07:33:50.381Z,12.27
2022-07-25T07:36:19.474Z,12.88
2022-07-25T07:38:48.462Z,12.73
2022-07-25T07:41:16.575Z,11.65
2022-07-25T07:43:44.404Z,11.88
2022-07-25T07:46:12.355Z,11.55
2022-07-25T07:48:40.371Z,12.02
2022-07-25T07:51:08.289Z,11.38
2022-07-25T07:53:51.357Z,11.50
2022-07-25T07:56:20.142Z,10.75
2022-07-25T07:58:48.340Z,11.60
2022-07-25T08:01:16.295Z,12.65
2022-07-25T08:03:44.161Z,12.00
2022-07-25T08:06:11.882Z,11.70
2022-07-25T08:08:41.298Z,11.43
2022-07-25T08:11:09.099Z,11.02
2022-07-25T08:13:38.127Z,10.73
2022-07-25T08:16:06.897Z,11.27
2022-07-25T08:18:34.963Z,10.75
2022-07-25T08:21:06.051Z,11.38
2022-07-25T08:23:35.389Z,10.85
2022-07-25T08:26:05.434Z,10.73
2022-07-25T08:28:33.429Z,11.35
2022-07-25T08:31:01.876Z,10.40
2022-07-25T08:33:29.742Z,10.45
2022-07-25T08:35:58.785Z,11.38
2022-07-25T08:38:29.002Z,11.02
2022-07-25T08:40:57.936Z,10.85
2022-07-25T08:43:27.242Z,10.57
2022-07-25T08:45:55.997Z,11.10
2022-07-25T08:48:26.153Z,10.63
2022-07-25T08:50:57.289Z,10.70
2022-07-25T08:53:34.097Z,10.00
2022-07-25T08:56:06.721Z,8.80
2022-07-25T08:58:40.656Z,9.18
2022-07-25T09:01:09.122Z,7.95
2022-07-25T09:03:36.988Z,8.38
2022-07-25T09:06:15.898Z,7.80
2022-07-25T09:08:55.614Z,7.53
2022-07-25T09:11:31.736Z,7.60
2022-07-25T09:14:07.104Z,7.65
2022-07-25T09:16:40.135Z,7.38
2022-07-25T09:19:10.691Z,7.40
2022-07-25T09:21:39.854Z,7.97
2022-07-25T09:24:13.108Z,7.35
2022-07-25T09:26:49.262Z,7.35
2022-07-25T09:29:20.097Z,7.70
2022-07-25T09:31:48.153Z,7.65
2022-07-25T09:34:21.890Z,7.40
2022-07-25T09:36:56.436Z,7.82
2022-07-25T09:39:34.358Z,7.47
2022-07-25T09:42:02.364Z,7.32
2022-07-25T09:44:31.696Z,7.22
2022-07-25T09:46:59.839Z,7.22
2022-07-25T09:49:38.135Z,7.00
2022-07-25T09:52:06.428Z,7.22
2022-07-25T09:54:34.841Z,7.15
2022-07-25T09:57:02.725Z,6.78
2022-07-25T09:59:31.899Z,6.53
2022-07-25T10:02:09.187Z,6.60
2022-07-25T10:04:45.983Z,6.70
2022-07-25T10:07:16.439Z,6.55
2022-07-25T10:09:46.739Z,5.82
2022-07-25T10:12:16.227Z,6.60
2022-07-25T10:15:07.455Z,5.97
2022-07-25T10:17:36.252Z,6.10
2022-07-25T10:20:06.565Z,5.63
2022-07-25T10:22:57.898Z,5.80
2022-07-25T10:25:26.477Z,5.47
2022-07-25T10:28:01.108Z,5.90
2022-07-25T10:30:36.798Z,6.18
2022-07-25T10:33:06.544Z,6.00
2022-07-25T10:35:34.347Z,6.32
2022-07-25T10:38:05.182Z,6.53
2022-07-25T10:40:36.703Z,5.85
2022-07-25T10:43:09.783Z,6.25
2022-07-25T10:45:45.243Z,6.10
2022-07-25T10:48:22.126Z,6.30
2022-07-25T10:50:57.854Z,6.47
2022-07-25T10:53:31.521Z,6.03
2022-07-25T10:56:06.117Z,6.80
2022-07-25T10:58:51.902Z,5.18
2022-07-25T11:01:26.361Z,6.25
2022-07-25T11:03:56.501Z,5.82
2022-07-25T11:06:33.478Z,5.45
2022-07-25T11:09:02.203Z,5.22
2022-07-25T11:11:42.100Z,5.45
2022-07-25T11:14:16.756Z,5.68
2022-07-25T11:16:47.617Z,5.30
2022-07-25T11:21:48.120Z,5.18
2022-07-25T11:24:15.842Z,5.68
2022-07-25T11:26:48.266Z,5.30
2022-07-25T11:29:21.752Z,5.75
2022-07-25T11:31:55.491Z,5.10
2022-07-25T11:34:26.370Z,5.25
2022-07-25T11:36:57.239Z,5.55
2022-07-25T11:39:27.150Z,5.28
2022-07-25T11:42:02.943Z,4.50
2022-07-25T11:44:38.622Z,5.32
2022-07-25T11:47:10.308Z,4.63
2022-07-25T11:49:48.505Z,4.80
2022-07-25T11:52:24.038Z,4.95
2022-07-25T11:54:56.973Z,4.82
2022-07-25T11:57:25.932Z,4.57
2022-07-25T11:59:54.272Z,4.80
2022-07-25T12:02:25.956Z,4.80
2022-07-25T12:04:58.459Z,4.68
2022-07-25T12:07:44.994Z,4.05
2022-07-25T12:10:17.171Z,4.40
2022-07-25T12:12:50.645Z,4.45
2022-07-25T12:15:21.597Z,4.95
2022-07-25T12:17:52.303Z,5.30
2022-07-25T12:20:22.115Z,4.65
2022-07-25T12:22:50.964Z,4.45
2022-07-25T12:25:18.930Z,6.57
2022-07-25T12:27:47.007Z,7.75
2022-07-25T12:30:15.685Z,11.68
2022-07-25T12:32:43.957Z,4.80
2022-07-25T12:35:14.914Z,4.93
2022-07-25T12:37:43.547Z,5.10
2022-07-25T12:40:13.525Z,4.75
2022-07-25T12:42:41.382Z,4.32
2022-07-25T12:45:09.920Z,4.88
2022-07-25T12:47:37.860Z,4.50
2022-07-25T12:50:07.288Z,4.47
2022-07-25T12:52:37.837Z,4.63
2022-07-25T12:55:06.874Z,4.90
2022-07-25T12:57:36.146Z,4.57
2022-07-25T13:00:04.543Z,4.97
2022-07-25T13:02:32.437Z,4.18
2022-07-25T13:05:00.387Z,4.72
2022-07-25T13:07:28.260Z,4.53
2022-07-25T13:09:57.548Z,5.00
2022-07-25T13:12:25.345Z,5.33
2022-07-25T13:14:53.183Z,5.10
2022-07-25T13:17:25.070Z,5.35
2022-07-25T13:19:55.455Z,4.97
2022-07-25T13:22:23.480Z,4.75
2022-07-25T13:24:51.307Z,4.65
2022-07-25T13:27:20.979Z,4.80
2022-07-25T13:29:53.960Z,5.00
2022-07-25T13:32:22.218Z,4.70
2022-07-25T13:34:50.196Z,4.55
2022-07-25T13:37:18.099Z,4.47
2022-07-25T13:39:45.840Z,4.78
2022-07-25T13:42:13.662Z,4.20
2022-07-25T13:44:43.066Z,5.05
2022-07-25T13:47:11.065Z,4.78
2022-07-25T13:49:38.903Z,5.22
2022-07-25T13:52:07.428Z,5.32
2022-07-25T13:54:35.299Z,4.97
2022-07-25T13:57:03.413Z,4.90
2022-07-25T13:59:31.457Z,5.03
2022-07-25T14:02:00.709Z,4.82
2022-07-25T14:04:28.588Z,5.38
2022-07-25T14:06:58.328Z,5.30
2022-07-25T14:09:26.105Z,5.50
2022-07-25T14:11:53.900Z,4.78
2022-07-25T14:14:21.626Z,5.35
2022-07-25T14:16:49.988Z,5.15
2022-07-25T14:19:19.109Z,5.18
2022-07-25T14:21:46.805Z,5.15
2022-07-25T14:24:14.582Z,5.07
2022-07-25T14:26:42.367Z,4.90
2022-07-25T14:29:11.311Z,5.30
2022-07-25T14:31:40.658Z,4.97
2022-07-25T14:34:09.027Z,4.70
2022-07-25T14:36:38.185Z,4.85
2022-07-25T14:39:06.611Z,4.72
2022-07-25T14:41:35.244Z,5.05
2022-07-25T14:44:02.956Z,4.65
2022-07-25T14:46:30.998Z,5.25
2022-07-25T14:48:58.967Z,4.82
2022-07-25T14:51:28.487Z,5.25
2022-07-25T14:53:57.589Z,5.40
2022-07-25T14:56:25.338Z,5.28
2022-07-25T14:58:53.070Z,5.45
2022-07-25T15:01:24.301Z,5.75
2022-07-25T15:03:52.356Z,7.15
2022-07-25T15:06:20.216Z,5.65
2022-07-25T15:08:47.985Z,5.80
2022-07-25T15:11:17.093Z,5.43
2022-07-25T15:13:44.955Z,8.77
2022-07-25T15:16:13.886Z,6.10
2022-07-25T15:19:05.306Z,5.80
2022-07-25T15:21:29.791Z,5.78
2022-07-25T15:23:57.553Z,5.35
2022-07-25T15:26:26.677Z,5.90
2022-07-25T15:28:54.587Z,5.30
2022-07-25T15:31:24.277Z,6.68
2022-07-25T15:33:54.402Z,5.82
2022-07-25T15:36:27.103Z,5.47
2022-07-25T15:38:57.171Z,6.10
2022-07-25T15:41:26.617Z,6.00
2022-07-25T15:43:54.646Z,5.60
2022-07-25T15:46:22.556Z,6.00
2022-07-25T15:48:50.696Z,6.10
2022-07-25T15:51:18.670Z,5.80
2022-07-25T15:53:46.661Z,5.43
2022-07-25T15:56:16.029Z,5.90
2022-07-25T15:58:45.931Z,5.53
2022-07-25T16:01:13.789Z,5.63
2022-07-25T16:03:41.681Z,5.22
2022-07-25T16:06:09.823Z,5.50
2022-07-25T16:08:37.840Z,5.57
2022-07-25T16:11:06.178Z,5.28
2022-07-25T16:13:33.947Z,5.47
2022-07-25T16:16:03.070Z,5.25
2022-07-25T16:18:30.969Z,5.28
2022-07-25T16:20:58.674Z,4.75
2022-07-25T16:23:28.103Z,6.13
2022-07-25T16:25:55.888Z,5.47
2022-07-25T16:28:23.593Z,5.53
2022-07-25T16:30:52.145Z,5.38
2022-07-25T16:33:21.379Z,5.47
2022-07-25T16:35:49.163Z,5.95
2022-07-25T16:38:17.627Z,5.45
2022-07-25T16:40:45.425Z,5.53
2022-07-25T16:43:13.144Z,4.85
2022-07-25T16:45:42.197Z,5.72
2022-07-25T16:48:10.276Z,5.35
2022-07-25T16:50:39.644Z,5.65
2022-07-25T16:53:07.562Z,6.43
2022-07-25T16:55:35.413Z,5.75
2022-07-25T16:58:03.731Z,5.53
2022-07-25T17:00:31.784Z,5.55
2022-07-25T17:02:59.638Z,5.32
2022-07-25T17:05:27.461Z,5.15
2022-07-25T17:07:59.392Z,5.20
2022-07-25T17:10:28.053Z,5.53
2022-07-25T17:12:55.845Z,5.32
2022-07-25T17:15:24.074Z,5.13
2022-07-25T17:17:51.867Z,5.20
2022-07-25T17:20:20.155Z,5.80
2022-07-25T17:22:47.952Z,5.10
2022-07-25T17:25:17.772Z,6.45
2022-07-25T17:27:45.699Z,5.57
2022-07-25T17:30:14.017Z,5.43
2022-07-25T17:32:41.769Z,5.43
2022-07-25T17:35:10.471Z,5.40
2022-07-25T17:37:38.262Z,5.30
2022-07-25T17:40:06.868Z,5.72
2022-07-25T17:42:36.011Z,5.55
2022-07-25T17:45:06.878Z,5.30
2022-07-25T17:47:34.875Z,5.00
2022-07-25T17:50:02.828Z,5.57
2022-07-25T17:52:30.845Z,5.40
2022-07-25T17:54:58.875Z,5.53
2022-07-25T17:57:27.226Z,5.93
2022-07-25T17:59:57.120Z,5.88
2022-07-25T18:02:25.300Z,5.05
2022-07-25T18:04:53.437Z,5.20
2022-07-25T18:07:21.159Z,5.28
2022-07-25T18:09:48.889Z,5.15
2022-07-25T18:12:16.621Z,5.13
2022-07-25T18:14:44.387Z,5.05
2022-07-25T18:17:13.657Z,4.63
2022-07-25T18:19:41.558Z,4.93
2022-07-25T18:22:09.347Z,5.28
2022-07-25T18:24:38.331Z,5.10
2022-07-25T18:27:06.692Z,5.38
2022-07-25T18:29:37.010Z,5.20
2022-07-25T18:32:05.411Z,5.20
2022-07-25T18:34:34.557Z,4.90
2022-07-25T18:37:02.336Z,5.20
2022-07-25T18:39:30.218Z,4.75
2022-07-25T18:41:58.103Z,5.10
2022-07-25T18:44:25.878Z,5.25
2022-07-25T18:46:53.849Z,7.88
2022-07-25T18:49:21.926Z,5.10
2022-07-25T18:51:51.290Z,5.65
2022-07-25T18:54:19.063Z,5.18
2022-07-25T18:56:46.940Z,4.72
2022-07-25T18:59:14.703Z,4.78
2022-07-25T19:01:42.658Z,5.10
2022-07-25T19:04:10.902Z,5.30
2022-07-25T19:06:38.944Z,4.80
2022-07-25T19:09:11.326Z,5.28
2022-07-25T19:11:42.382Z,4.80
2022-07-25T19:14:10.691Z,4.65
2022-07-25T19:16:39.620Z,4.43
2022-07-25T19:19:09.496Z,4.40
2022-07-25T19:21:37.690Z,4.57
2022-07-25T19:24:06.457Z,5.05
2022-07-25T19:26:35.853Z,4.88
2022-07-25T19:29:03.596Z,4.78
2022-07-25T19:31:31.413Z,6.68
2022-07-25T19:33:59.163Z,4.50
2022-07-25T19:36:26.948Z,4.78
2022-07-25T19:38:54.689Z,5.03
2022-07-25T19:41:22.514Z,4.55
2022-07-25T19:43:52.384Z,4.70
2022-07-25T19:46:20.597Z,4.93
2022-07-25T19:48:48.578Z,5.20
2022-07-25T19:51:16.475Z,4.82
2022-07-25T19:53:44.277Z,4.53
2022-07-25T19:56:12.024Z,4.75
2022-07-25T19:58:43.163Z,4.68
2022-07-25T20:01:13.054Z,5.05
2022-07-25T20:03:41.712Z,4.78
2022-07-25T20:06:10.019Z,5.10
2022-07-25T20:08:39.263Z,5.10
2022-07-25T20:11:07.366Z,7.32
2022-07-25T20:13:35.973Z,6.93
2022-07-25T20:16:04.025Z,4.88
2022-07-25T20:18:33.406Z,5.55
2022-07-25T20:21:01.168Z,5.18
2022-07-25T20:23:30.102Z,5.03
2022-07-25T20:25:58.063Z,4.57
2022-07-25T20:28:25.970Z,4.30
2022-07-25T20:30:55.734Z,4.47
2022-07-25T20:33:26.986Z,4.50
2022-07-25T20:35:56.666Z,5.32
2022-07-25T20:38:25.535Z,4.82
2022-07-25T20:40:54.560Z,5.05
2022-07-25T20:43:22.974Z,4.95
2022-07-25T20:45:50.897Z,4.85
2022-07-25T20:48:18.890Z,4.75
2022-07-25T20:50:46.787Z,5.57
2022-07-25T20:53:15.926Z,5.18
2022-07-25T20:55:43.700Z,5.03
2022-07-25T20:58:11.433Z,5.00
2022-07-25T21:00:39.202Z,4.75
2022-07-25T21:03:08.206Z,4.93
2022-07-25T21:05:37.588Z,5.38
2022-07-25T21:08:05.793Z,4.80
2022-07-25T21:10:35.048Z,4.63
2022-07-25T21:13:02.892Z,6.63
2022-07-25T21:15:31.739Z,5.45
2022-07-25T21:17:59.987Z,5.15
2022-07-25T21:20:27.842Z,4.93
2022-07-25T21:22:56.326Z,4.68
2022-07-25T21:25:24.138Z,4.90
2022-07-25T21:27:53.288Z,4.57
2022-07-25T21:30:21.090Z,4.90
2022-07-25T21:32:48.878Z,4.88
2022-07-25T21:35:18.084Z,4.60
2022-07-25T21:37:45.873Z,5.10
2022-07-25T21:40:14.146Z,4.93
2022-07-25T21:42:43.342Z,5.30
2022-07-25T21:45:13.214Z,5.28
2022-07-25T21:47:40.931Z,4.63
2022-07-25T21:50:27.379Z,5.25
2022-07-25T21:52:55.216Z,4.68
2022-07-25T21:55:23.452Z,4.32
2022-07-25T21:57:51.684Z,4.50
2022-07-25T22:00:22.378Z,5.10
2022-07-25T22:02:50.326Z,4.38
2022-07-25T22:05:19.096Z,4.65
2022-07-25T22:07:47.640Z,4.43
2022-07-25T22:10:16.897Z,5.00
2022-07-25T22:12:44.965Z,4.65
2022-07-25T22:15:13.801Z,4.43
2022-07-25T22:17:49.226Z,4.60
2022-07-25T22:20:18.040Z,4.72
2022-07-25T22:22:46.643Z,4.47
2022-07-25T22:25:14.778Z,4.25
2022-07-25T22:27:42.718Z,3.95
2022-07-25T22:30:18.433Z,4.25
2022-07-25T22:32:49.066Z,3.40
2022-07-25T22:35:17.076Z,4.00
2022-07-25T22:37:45.281Z,3.40
2022-07-25T22:40:14.675Z,3.88
2022-07-25T22:42:42.743Z,3.70
2022-07-25T22:45:11.365Z,3.70
2022-07-25T22:47:39.130Z,3.63
2022-07-25T22:50:10.268Z,3.58
2022-07-25T22:52:38.011Z,3.75
2022-07-25T22:55:06.481Z,3.55
2022-07-25T22:57:36.766Z,4.15
2022-07-25T23:00:07.335Z,3.72
2022-07-25T23:02:35.365Z,3.20
2022-07-25T23:05:03.215Z,3.38
2022-07-25T23:07:32.667Z,3.50
2022-07-25T23:10:00.608Z,3.90
2022-07-25T23:12:28.473Z,3.30
2022-07-25T23:14:56.314Z,3.25
2022-07-25T23:17:24.669Z,3.78
2022-07-25T23:19:53.994Z,3.10
2022-07-25T23:22:23.041Z,3.60
2022-07-25T23:24:52.215Z,3.17
2022-07-25T23:27:20.023Z,3.35
2022-07-25T23:29:47.770Z,3.58
2022-07-25T23:32:15.590Z,3.30
2022-07-25T23:34:44.250Z,2.67
2022-07-25T23:37:12.160Z,3.13
2022-07-25T23:39:39.935Z,3.33
2022-07-25T23:42:09.709Z,3.78
2022-07-25T23:44:39.126Z,3.03
2022-07-25T23:47:10.014Z,3.60
2022-07-25T23:49:38.054Z,3.07
2022-07-25T23:52:06.703Z,2.95
2022-07-25T23:54:34.895Z,2.85
2022-07-25T23:57:03.137Z,2.92
2022-07-25T23:59:32.241Z,3.03
